Time;durP1;ratioP1;P1;durP2;ratioP2;P2;SDS_P1;SDS_P2;PMS_P1;PMS_P2;Temp;Humidity;BMP_temperature;BMP_pressure;BME280_temperature;BME280_humidity;BME280_pressure;Samples;Min_cycle;Max_cycle;Signal;HPM_P1;HPM_P2
2022/07/04 00:01:48;;;;;;;15.00;4.78;;;;;;;;;;4858354;29;20050;-71
2022/07/04 00:04:18;;;;;;;10.73;4.00;;;;;;;;;;4858533;29;20066;-71
2022/07/04 00:06:48;;;;;;;7.07;3.65;;;;;;;;;;4827520;29;20061;-72
2022/07/04 00:09:19;;;;;;;9.43;3.58;;;;;;;;;;4858409;29;20049;-72
2022/07/04 00:11:49;;;;;;;9.98;3.75;;;;;;;;;;4857655;29;20061;-72
2022/07/04 00:14:22;;;;;;;9.75;3.42;;;;;;;;;;4821001;29;20078;-72
2022/07/04 00:16:55;;;;;;;9.82;4.10;;;;;;;;;;4821537;29;20054;-72
2022/07/04 00:19:49;;;;;;;10.45;4.13;;;;;;;;;;4773043;29;20064;-72
2022/07/04 00:22:45;;;;;;;8.43;3.58;;;;;;;;;;4803220;29;20062;-72
2022/07/04 00:25:53;;;;;;;8.45;4.07;;;;;;;;;;4805624;29;20066;-73
2022/07/04 00:28:23;;;;;;;12.93;4.22;;;;;;;;;;4785342;29;20059;-72
2022/07/04 00:30:53;;;;;;;9.00;3.60;;;;;;;;;;4785119;29;20063;-72
2022/07/04 00:33:23;;;;;;;7.78;3.03;;;;;;;;;;4820835;29;20070;-72
2022/07/04 00:35:54;;;;;;;10.75;3.63;;;;;;;;;;4790874;29;20672;-72
2022/07/04 00:38:25;;;;;;;13.88;3.75;;;;;;;;;;4822467;29;20051;-72
2022/07/04 00:40:55;;;;;;;11.85;4.20;;;;;;;;;;4820926;29;20058;-73
2022/07/04 00:43:26;;;;;;;11.90;3.30;;;;;;;;;;4819836;29;20515;-73
2022/07/04 00:45:57;;;;;;;11.52;3.40;;;;;;;;;;4784023;29;20055;-72
2022/07/04 00:48:28;;;;;;;11.88;3.38;;;;;;;;;;4754935;29;20500;-72
2022/07/04 00:50:58;;;;;;;10.35;3.90;;;;;;;;;;4783191;29;20059;-73
2022/07/04 00:53:29;;;;;;;9.65;3.70;;;;;;;;;;4769425;30;20062;-72
2022/07/04 00:55:59;;;;;;;8.70;3.63;;;;;;;;;;4785024;29;20074;-73
2022/07/04 00:58:30;;;;;;;9.25;3.50;;;;;;;;;;4784563;29;20567;-74
2022/07/04 01:01:01;;;;;;;11.30;4.03;;;;;;;;;;4784718;29;20063;-73
2022/07/04 01:03:31;;;;;;;8.32;3.58;;;;;;;;;;4811860;29;20055;-73
2022/07/04 01:06:01;;;;;;;10.20;3.92;;;;;;;;;;4749282;30;20548;-73
2022/07/04 01:08:32;;;;;;;7.30;3.30;;;;;;;;;;4733727;30;20510;-73
2022/07/04 01:11:03;;;;;;;9.07;3.22;;;;;;;;;;4706087;30;20057;-72
2022/07/04 01:13:33;;;;;;;11.55;3.60;;;;;;;;;;4789579;29;20069;-73
2022/07/04 01:16:04;;;;;;;9.18;3.35;;;;;;;;;;4779303;30;20123;-74
2022/07/04 01:18:35;;;;;;;10.10;4.47;;;;;;;;;;4793356;29;20070;-72
2022/07/04 01:21:06;;;;;;;10.50;4.20;;;;;;;;;;4802023;29;20690;-72
2022/07/04 01:23:39;;;;;;;10.48;4.22;;;;;;;;;;4793057;29;20062;-73
2022/07/04 01:26:09;;;;;;;10.43;3.78;;;;;;;;;;4802367;29;20059;-71
2022/07/04 01:28:40;;;;;;;13.52;3.97;;;;;;;;;;4772359;29;20063;-72
2022/07/04 01:31:11;;;;;;;9.60;4.50;;;;;;;;;;4821046;29;20096;-72
2022/07/04 01:33:41;;;;;;;11.35;3.70;;;;;;;;;;4838510;29;20054;-72
2022/07/04 01:36:11;;;;;;;8.07;3.78;;;;;;;;;;4823570;29;20062;-72
2022/07/04 01:38:42;;;;;;;10.32;3.80;;;;;;;;;;4823421;29;20538;-73
2022/07/04 01:41:12;;;;;;;8.27;3.50;;;;;;;;;;4838534;29;20072;-72
2022/07/04 01:43:43;;;;;;;10.35;4.40;;;;;;;;;;4838522;29;20550;-72
2022/07/04 01:46:13;;;;;;;7.60;3.70;;;;;;;;;;4838529;29;20092;-72
2022/07/04 01:48:43;;;;;;;8.90;3.58;;;;;;;;;;4838393;29;20058;-72
2022/07/04 01:51:13;;;;;;;9.45;5.05;;;;;;;;;;4838631;29;20057;-72
2022/07/04 01:53:44;;;;;;;8.90;3.58;;;;;;;;;;4863875;29;20057;-72
2022/07/04 01:56:14;;;;;;;10.45;3.72;;;;;;;;;;4877742;29;20049;-73
2022/07/04 01:58:44;;;;;;;10.95;3.65;;;;;;;;;;4875219;29;20569;-72
2022/07/04 02:01:30;;;;;;;9.10;3.55;;;;;;;;;;4859747;29;20086;-72
2022/07/04 02:04:03;;;;;;;12.73;4.18;;;;;;;;;;4861981;29;20061;-72
2022/07/04 02:06:34;;;;;;;14.45;3.92;;;;;;;;;;4875103;29;20072;-73
2022/07/04 02:09:17;;;;;;;9.05;3.42;;;;;;;;;;4875002;29;20066;-72
2022/07/04 02:14:36;;;;;;;7.20;3.47;;;;;;;;;;4829295;29;20045;-72
2022/07/04 02:17:06;;;;;;;10.40;3.45;;;;;;;;;;4875122;29;20097;-72
2022/07/04 02:19:37;;;;;;;9.70;3.33;;;;;;;;;;4859652;29;20612;-72
2022/07/04 02:22:07;;;;;;;6.65;3.70;;;;;;;;;;4875158;29;20057;-72
2022/07/04 02:24:37;;;;;;;10.57;3.47;;;;;;;;;;4859355;29;20060;-72
2022/07/04 02:27:08;;;;;;;9.63;3.17;;;;;;;;;;4844228;29;20061;-72
2022/07/04 02:29:38;;;;;;;8.88;3.35;;;;;;;;;;4844928;29;20069;-71
2022/07/04 02:32:10;;;;;;;15.10;3.55;;;;;;;;;;4829375;29;20064;-71
2022/07/04 02:34:40;;;;;;;12.07;3.88;;;;;;;;;;4875064;29;20060;-71
2022/07/04 02:37:10;;;;;;;6.47;3.13;;;;;;;;;;4880134;29;20068;-71
2022/07/04 02:39:40;;;;;;;9.63;3.20;;;;;;;;;;4880846;29;20063;-71
2022/07/04 02:42:11;;;;;;;8.25;3.42;;;;;;;;;;4880901;29;20413;-70
2022/07/04 02:44:43;;;;;;;7.75;2.78;;;;;;;;;;4880680;29;20526;-71
2022/07/04 02:47:14;;;;;;;7.95;3.00;;;;;;;;;;4881019;29;20044;-71
2022/07/04 02:49:44;;;;;;;10.18;2.72;;;;;;;;;;4880633;29;20053;-71
2022/07/04 02:52:15;;;;;;;5.72;2.85;;;;;;;;;;4880532;29;20049;-71
2022/07/04 02:54:46;;;;;;;8.35;3.40;;;;;;;;;;4877900;29;20521;-70
2022/07/04 02:57:17;;;;;;;11.02;3.00;;;;;;;;;;4878162;29;20057;-71
2022/07/04 02:59:47;;;;;;;9.43;3.17;;;;;;;;;;4878434;29;20544;-71
2022/07/04 03:02:18;;;;;;;8.98;3.10;;;;;;;;;;4832168;29;20061;-71
2022/07/04 03:04:48;;;;;;;6.63;3.15;;;;;;;;;;4878239;29;20053;-71
2022/07/04 03:07:18;;;;;;;6.88;2.53;;;;;;;;;;4846918;29;20064;-70
2022/07/04 03:09:48;;;;;;;8.63;2.75;;;;;;;;;;4862508;29;20053;-70
2022/07/04 03:12:19;;;;;;;11.15;2.35;;;;;;;;;;4878096;29;20068;-71
2022/07/04 03:14:49;;;;;;;11.07;3.05;;;;;;;;;;4859005;29;20050;-71
2022/07/04 03:17:20;;;;;;;9.00;3.00;;;;;;;;;;4828516;29;20494;-71
2022/07/04 03:19:50;;;;;;;5.55;2.53;;;;;;;;;;4858858;29;20053;-71
2022/07/04 03:22:20;;;;;;;5.97;2.60;;;;;;;;;;4874497;29;20165;-70
2022/07/04 03:24:51;;;;;;;4.47;2.38;;;;;;;;;;4813353;29;20502;-71
2022/07/04 03:27:21;;;;;;;7.18;2.40;;;;;;;;;;4858931;29;20073;-71
2022/07/04 03:29:51;;;;;;;5.97;2.58;;;;;;;;;;4843674;29;20061;-70
2022/07/04 03:32:21;;;;;;;8.05;2.65;;;;;;;;;;4806458;29;20054;-71
2022/07/04 03:34:52;;;;;;;4.35;2.40;;;;;;;;;;4776890;29;20803;-72
2022/07/04 03:37:22;;;;;;;7.95;2.75;;;;;;;;;;4858902;29;20505;-71
2022/07/04 03:39:52;;;;;;;7.57;2.60;;;;;;;;;;4813067;29;20065;-71
2022/07/04 03:42:22;;;;;;;7.35;2.53;;;;;;;;;;4828335;29;20091;-71
2022/07/04 03:44:52;;;;;;;9.52;3.08;;;;;;;;;;4858827;29;20083;-71
2022/07/04 03:47:23;;;;;;;10.93;3.72;;;;;;;;;;4858823;29;20057;-70
2022/07/04 03:49:54;;;;;;;7.85;3.17;;;;;;;;;;4858632;29;20066;-71
2022/07/04 03:52:24;;;;;;;7.63;2.83;;;;;;;;;;4841143;29;20427;-71
2022/07/04 03:54:54;;;;;;;7.55;3.00;;;;;;;;;;4858369;29;20057;-71
2022/07/04 03:57:25;;;;;;;7.80;2.83;;;;;;;;;;4858579;29;20573;-71
2022/07/04 03:59:55;;;;;;;7.88;4.53;;;;;;;;;;4858541;29;20053;-71
2022/07/04 04:02:26;;;;;;;7.18;2.90;;;;;;;;;;4858421;29;20102;-71
2022/07/04 04:07:45;;;;;;;7.22;2.47;;;;;;;;;;4821332;29;20061;-71
2022/07/04 04:10:15;;;;;;;5.97;2.63;;;;;;;;;;4820944;29;20069;-71
2022/07/04 04:12:45;;;;;;;6.18;2.88;;;;;;;;;;4820863;29;20475;-71
2022/07/04 04:15:16;;;;;;;6.70;2.85;;;;;;;;;;4794577;29;20070;-71
2022/07/04 04:17:46;;;;;;;6.22;2.95;;;;;;;;;;4784633;29;20062;-71
2022/07/04 04:20:17;;;;;;;8.38;2.97;;;;;;;;;;4784542;29;20127;-70
2022/07/04 04:22:47;;;;;;;6.10;2.50;;;;;;;;;;4784525;29;20059;-71
2022/07/04 04:25:18;;;;;;;8.32;2.78;;;;;;;;;;4784502;29;20916;-71
2022/07/04 04:27:49;;;;;;;7.95;2.80;;;;;;;;;;4784350;29;20067;-71
2022/07/04 04:30:19;;;;;;;7.43;2.67;;;;;;;;;;4784154;29;20064;-71
2022/07/04 04:32:49;;;;;;;7.25;3.10;;;;;;;;;;4784641;29;20059;-71
2022/07/04 04:35:19;;;;;;;10.20;3.03;;;;;;;;;;4784095;29;20055;-71
2022/07/04 04:37:50;;;;;;;10.60;2.70;;;;;;;;;;4784445;29;20067;-71
2022/07/04 04:40:20;;;;;;;7.07;2.75;;;;;;;;;;4806114;29;20069;-71
2022/07/04 04:42:50;;;;;;;7.80;3.00;;;;;;;;;;4849687;29;20065;-71
2022/07/04 04:45:20;;;;;;;9.60;2.78;;;;;;;;;;4826324;29;20061;-71
2022/07/04 04:47:53;;;;;;;10.50;2.90;;;;;;;;;;4811298;29;20481;-71
2022/07/04 04:50:23;;;;;;;7.78;2.70;;;;;;;;;;4856969;29;20053;-71
2022/07/04 04:52:54;;;;;;;8.15;3.03;;;;;;;;;;4856837;29;20135;-70
2022/07/04 04:55:24;;;;;;;9.52;3.30;;;;;;;;;;4866269;29;20536;-71
2022/07/04 04:57:54;;;;;;;11.35;2.78;;;;;;;;;;4860125;29;20064;-71
2022/07/04 05:00:25;;;;;;;6.03;2.83;;;;;;;;;;4844298;29;20065;-71
2022/07/04 05:02:55;;;;;;;7.03;3.10;;;;;;;;;;4875321;29;20056;-70
2022/07/04 05:05:26;;;;;;;8.30;2.80;;;;;;;;;;4825710;29;20414;-71
2022/07/04 05:07:56;;;;;;;4.88;2.63;;;;;;;;;;4779298;29;2315110;-71
2022/07/04 05:10:27;;;;;;;6.85;2.85;;;;;;;;;;4857273;29;20073;-70
2022/07/04 05:12:57;;;;;;;8.70;3.08;;;;;;;;;;4857279;29;20045;-70
2022/07/04 05:15:27;;;;;;;4.97;2.63;;;;;;;;;;4857488;29;20056;-70
2022/07/04 05:17:57;;;;;;;5.70;2.90;;;;;;;;;;4857343;29;20437;-70
2022/07/04 05:20:28;;;;;;;5.82;2.90;;;;;;;;;;4857234;29;20057;-70
2022/07/04 05:22:58;;;;;;;7.85;3.28;;;;;;;;;;4857207;29;20076;-69
2022/07/04 05:25:28;;;;;;;12.70;2.92;;;;;;;;;;4857106;29;20061;-70
2022/07/04 05:27:59;;;;;;;6.38;3.10;;;;;;;;;;4856921;29;20532;-70
2022/07/04 05:30:29;;;;;;;6.45;3.10;;;;;;;;;;4857172;29;20410;-70
2022/07/04 05:33:01;;;;;;;7.05;3.00;;;;;;;;;;4856770;29;20061;-70
2022/07/04 05:35:32;;;;;;;7.57;3.38;;;;;;;;;;4838395;29;20069;-71
2022/07/04 05:38:01;;;;;;;8.95;3.72;;;;;;;;;;4838352;29;20065;-70
2022/07/04 05:40:32;;;;;;;10.02;3.13;;;;;;;;;;4793377;29;20618;-70
2022/07/04 05:43:03;;;;;;;10.15;3.10;;;;;;;;;;4838399;29;20069;-71
2022/07/04 05:45:33;;;;;;;8.48;2.72;;;;;;;;;;4838397;29;20484;-71
2022/07/04 05:48:03;;;;;;;7.63;2.90;;;;;;;;;;4838545;29;20066;-70
2022/07/04 05:50:35;;;;;;;11.10;3.35;;;;;;;;;;4838546;29;20192;-71
2022/07/04 05:53:05;;;;;;;7.85;3.60;;;;;;;;;;4819703;29;20427;-71
2022/07/04 05:55:35;;;;;;;8.88;3.50;;;;;;;;;;4789876;29;20066;-71
2022/07/04 05:58:06;;;;;;;9.93;3.97;;;;;;;;;;4805310;29;20054;-71
2022/07/04 06:00:39;;;;;;;8.35;3.50;;;;;;;;;;4819824;29;20086;-72
2022/07/04 06:03:10;;;;;;;9.65;3.92;;;;;;;;;;4820232;29;20058;-71
2022/07/04 06:05:39;;;;;;;9.38;4.13;;;;;;;;;;4820122;29;20055;-71
2022/07/04 06:08:10;;;;;;;10.90;3.72;;;;;;;;;;4789660;29;20066;-72
2022/07/04 06:10:40;;;;;;;8.07;3.92;;;;;;;;;;4802613;29;20420;-71
2022/07/04 06:13:11;;;;;;;8.73;3.70;;;;;;;;;;4815044;29;20066;-71
2022/07/04 06:15:41;;;;;;;11.85;4.18;;;;;;;;;;4823654;29;20126;-72
2022/07/04 06:18:12;;;;;;;9.20;4.10;;;;;;;;;;4823321;29;20054;-71
2022/07/04 06:20:42;;;;;;;12.43;4.53;;;;;;;;;;4805176;29;20054;-71
2022/07/04 06:23:12;;;;;;;14.27;4.53;;;;;;;;;;4805383;29;20078;-71
2022/07/04 06:25:43;;;;;;;11.40;4.75;;;;;;;;;;4775296;29;20063;-71
2022/07/04 06:28:13;;;;;;;13.52;4.70;;;;;;;;;;4805191;29;20074;-71
2022/07/04 06:31:03;;;;;;;11.05;4.90;;;;;;;;;;4828479;29;20065;-71
2022/07/04 06:35:44;;;;;;;13.55;5.35;;;;;;;;;;4841397;29;20058;-71
2022/07/04 06:36:24;;;;;;;12.52;4.85;;;;;;;;;;4841484;29;20062;-71
2022/07/04 06:38:54;;;;;;;14.18;5.28;;;;;;;;;;4826549;29;20527;-71
2022/07/04 06:41:24;;;;;;;14.18;5.65;;;;;;;;;;4841563;29;20069;-71
2022/07/04 06:43:55;;;;;;;11.50;5.03;;;;;;;;;;4841678;29;20081;-71
2022/07/04 06:46:25;;;;;;;12.60;5.65;;;;;;;;;;4841435;29;20057;-71
2022/07/04 06:48:56;;;;;;;10.48;5.80;;;;;;;;;;4850503;29;20414;-71
2022/07/04 06:51:27;;;;;;;15.35;5.53;;;;;;;;;;4859549;29;20057;-70
2022/07/04 06:53:58;;;;;;;12.07;5.15;;;;;;;;;;4859544;29;20058;-70
2022/07/04 06:56:28;;;;;;;10.45;5.13;;;;;;;;;;4859726;29;20215;-70
2022/07/04 06:58:59;;;;;;;10.10;4.97;;;;;;;;;;4843499;29;20081;-70
2022/07/04 07:01:29;;;;;;;11.90;4.82;;;;;;;;;;4878137;29;20153;-70
2022/07/04 07:03:59;;;;;;;10.80;4.57;;;;;;;;;;4831915;29;20109;-71
2022/07/04 07:06:30;;;;;;;9.95;4.35;;;;;;;;;;4877988;29;20417;-70
2022/07/04 07:09:01;;;;;;;13.38;4.80;;;;;;;;;;4878124;29;20048;-71
2022/07/04 07:11:31;;;;;;;12.60;5.30;;;;;;;;;;4878001;29;20509;-70
2022/07/04 07:14:01;;;;;;;12.63;4.75;;;;;;;;;;4877709;29;20088;-70
2022/07/04 07:16:31;;;;;;;9.43;4.65;;;;;;;;;;4878062;29;20072;-70
2022/07/04 07:19:01;;;;;;;10.60;4.65;;;;;;;;;;4877584;29;20524;-70
2022/07/04 07:21:31;;;;;;;12.82;4.75;;;;;;;;;;4877444;29;20502;-71
2022/07/04 07:24:03;;;;;;;7.70;4.22;;;;;;;;;;4831563;29;20072;-70
2022/07/04 07:26:34;;;;;;;12.93;4.43;;;;;;;;;;4838240;29;20510;-70
2022/07/04 07:29:04;;;;;;;9.93;4.68;;;;;;;;;;4877427;29;20426;-70
2022/07/04 07:31:34;;;;;;;10.82;4.28;;;;;;;;;;4877698;29;20061;-70
2022/07/04 07:34:04;;;;;;;14.50;4.13;;;;;;;;;;4877398;29;20073;-70
2022/07/04 07:36:35;;;;;;;12.30;4.13;;;;;;;;;;4824908;29;20053;-70
2022/07/04 07:39:05;;;;;;;10.32;4.60;;;;;;;;;;4840296;29;20415;-71
2022/07/04 07:41:35;;;;;;;11.35;4.20;;;;;;;;;;4809977;29;20065;-70
2022/07/04 07:44:06;;;;;;;7.18;3.75;;;;;;;;;;4840153;29;20050;-70
2022/07/04 07:46:36;;;;;;;10.98;4.30;;;;;;;;;;4840325;29;20062;-70
2022/07/04 07:49:07;;;;;;;9.73;4.25;;;;;;;;;;4839945;29;20065;-70
2022/07/04 07:51:37;;;;;;;12.80;4.45;;;;;;;;;;4840358;29;20101;-69
2022/07/04 07:54:07;;;;;;;9.52;3.70;;;;;;;;;;4765381;29;20062;-70
2022/07/04 07:56:48;;;;;;;10.93;3.75;;;;;;;;;;4840158;29;20454;-69
2022/07/04 07:59:18;;;;;;;8.35;3.47;;;;;;;;;;4840006;29;20066;-70
2022/07/04 08:01:48;;;;;;;8.80;3.58;;;;;;;;;;4839803;29;20058;-70
2022/07/04 08:04:40;;;;;;;9.25;4.03;;;;;;;;;;4839594;29;20432;-70
2022/07/04 08:07:12;;;;;;;9.48;3.63;;;;;;;;;;4824767;29;20054;-71
2022/07/04 08:09:51;;;;;;;9.20;3.53;;;;;;;;;;4840256;29;20396;-70
2022/07/04 08:12:22;;;;;;;11.68;3.85;;;;;;;;;;4839893;29;20054;-70
2022/07/04 08:14:52;;;;;;;10.73;4.60;;;;;;;;;;4853732;29;20095;-71
2022/07/04 08:17:23;;;;;;;10.40;3.67;;;;;;;;;;4843112;29;20057;-70
2022/07/04 08:19:53;;;;;;;9.50;3.38;;;;;;;;;;4858100;29;20470;-69
2022/07/04 08:22:23;;;;;;;8.32;3.47;;;;;;;;;;4858179;29;20553;-69
2022/07/04 08:24:54;;;;;;;7.90;3.75;;;;;;;;;;4827415;29;20170;-70
2022/07/04 08:27:24;;;;;;;11.43;4.18;;;;;;;;;;4857538;29;20084;-70
2022/07/04 08:30:01;;;;;;;8.90;3.63;;;;;;;;;;4857766;29;20422;-70
2022/07/04 08:32:32;;;;;;;10.48;3.85;;;;;;;;;;4838751;29;20519;-70
2022/07/04 08:35:04;;;;;;;6.55;3.22;;;;;;;;;;4838996;29;20506;-71
2022/07/04 08:37:34;;;;;;;7.20;3.75;;;;;;;;;;4802516;29;20066;-71
2022/07/04 08:40:07;;;;;;;9.23;3.72;;;;;;;;;;4802830;29;20531;-70
2022/07/04 08:42:39;;;;;;;9.88;3.72;;;;;;;;;;4784612;30;20055;-70
2022/07/04 08:45:14;;;;;;;11.40;3.95;;;;;;;;;;4784908;30;20519;-70
2022/07/04 08:47:52;;;;;;;11.13;3.97;;;;;;;;;;4784766;30;20090;-70
2022/07/04 08:50:49;;;;;;;7.97;3.50;;;;;;;;;;4784892;30;20059;-70
2022/07/04 08:53:22;;;;;;;11.95;3.78;;;;;;;;;;4748859;30;20071;-70
2022/07/04 08:58:43;;;;;;;10.80;3.55;;;;;;;;;;4748901;30;20056;-70
2022/07/04 09:01:15;;;;;;;8.02;3.72;;;;;;;;;;4748882;30;20434;-71
2022/07/04 09:03:46;;;;;;;11.23;3.30;;;;;;;;;;4749052;30;20064;-70
2022/07/04 09:06:17;;;;;;;7.82;3.35;;;;;;;;;;4734349;30;20067;-69
2022/07/04 09:08:47;;;;;;;11.82;3.78;;;;;;;;;;4741405;30;20071;-69
2022/07/04 09:11:18;;;;;;;9.60;3.67;;;;;;;;;;4783002;30;20063;-70
2022/07/04 09:13:49;;;;;;;7.22;3.80;;;;;;;;;;4784141;30;20091;-70
2022/07/04 09:16:19;;;;;;;9.10;3.40;;;;;;;;;;4801440;29;20063;-70
2022/07/04 09:18:53;;;;;;;10.23;3.58;;;;;;;;;;4802441;29;20066;-70
2022/07/04 09:21:46;;;;;;;8.40;3.53;;;;;;;;;;4791709;29;20058;-70
2022/07/04 09:24:16;;;;;;;8.73;3.60;;;;;;;;;;4838667;29;20066;-69
2022/07/04 09:26:47;;;;;;;10.65;3.67;;;;;;;;;;4838585;29;20103;-70
2022/07/04 09:29:18;;;;;;;7.32;3.53;;;;;;;;;;4825095;29;20054;-69
2022/07/04 09:31:48;;;;;;;8.02;3.47;;;;;;;;;;4875582;29;20041;-69
2022/07/04 09:34:23;;;;;;;11.52;3.80;;;;;;;;;;4875525;29;20080;-70
2022/07/04 09:36:55;;;;;;;7.57;3.45;;;;;;;;;;4875599;29;20056;-69
2022/07/04 09:39:37;;;;;;;10.40;3.85;;;;;;;;;;4875883;29;20060;-69
2022/07/04 09:42:08;;;;;;;9.98;3.45;;;;;;;;;;4844483;29;20056;-69
2022/07/04 09:44:45;;;;;;;7.95;3.03;;;;;;;;;;4875343;29;20049;-70
2022/07/04 09:47:27;;;;;;;8.65;3.42;;;;;;;;;;4875372;29;20521;-70
2022/07/04 09:50:15;;;;;;;9.73;3.67;;;;;;;;;;4875251;29;20081;-70
2022/07/04 09:52:59;;;;;;;7.72;3.28;;;;;;;;;;4875468;29;20057;-69
2022/07/04 09:55:29;;;;;;;8.43;3.05;;;;;;;;;;4875290;29;20060;-70
2022/07/04 09:58:05;;;;;;;6.57;3.25;;;;;;;;;;4875551;29;20053;-70
2022/07/04 10:00:37;;;;;;;6.40;3.30;;;;;;;;;;4877569;29;20053;-70
2022/07/04 10:03:22;;;;;;;7.55;3.20;;;;;;;;;;4875520;29;20057;-70
2022/07/04 10:06:12;;;;;;;7.13;3.28;;;;;;;;;;4860010;29;20072;-70
2022/07/04 10:08:44;;;;;;;8.27;3.80;;;;;;;;;;4877733;29;20048;-70
2022/07/04 10:11:16;;;;;;;7.97;3.15;;;;;;;;;;4844878;29;20060;-70
2022/07/04 10:13:49;;;;;;;6.20;3.17;;;;;;;;;;4876310;29;20057;-70
2022/07/04 10:16:20;;;;;;;7.05;3.30;;;;;;;;;;4845378;29;20054;-70
2022/07/04 10:18:55;;;;;;;7.72;3.72;;;;;;;;;;4877351;29;20041;-70
2022/07/04 10:21:27;;;;;;;6.70;3.63;;;;;;;;;;4877353;29;20061;-70
2022/07/04 10:23:59;;;;;;;9.80;3.40;;;;;;;;;;4843723;29;20617;-70
2022/07/04 10:26:31;;;;;;;8.77;3.30;;;;;;;;;;4875099;29;20423;-71
2022/07/04 10:29:01;;;;;;;9.10;4.00;;;;;;;;;;4874723;29;20056;-69
2022/07/04 10:31:33;;;;;;;7.80;3.47;;;;;;;;;;4829322;29;20057;-69
2022/07/04 10:34:04;;;;;;;7.35;3.40;;;;;;;;;;4874804;29;20057;-70
2022/07/04 10:36:35;;;;;;;6.18;3.20;;;;;;;;;;4829021;29;20056;-69
2022/07/04 10:39:05;;;;;;;6.13;3.33;;;;;;;;;;4874825;29;20053;-70
2022/07/04 10:41:58;;;;;;;6.53;3.38;;;;;;;;;;4844215;29;20518;-69
2022/07/04 10:44:37;;;;;;;8.30;3.17;;;;;;;;;;4874714;29;20065;-69
2022/07/04 10:47:21;;;;;;;;;;;;;;;;;;4875214;29;20104;-70
2022/07/04 10:49:57;;;;;;;7.47;3.22;;;;;;;;;;4874998;29;19923;-69
2022/07/04 10:52:27;;;;;;;9.70;4.00;;;;;;;;;;4874651;29;20068;-69
2022/07/04 10:55:10;;;;;;;11.02;4.10;;;;;;;;;;4874494;29;20105;-69
2022/07/04 10:57:40;;;;;;;6.85;3.47;;;;;;;;;;4876733;29;20102;-69
2022/07/04 11:00:12;;;;;;;8.95;3.67;;;;;;;;;;4846963;29;20061;-70
2022/07/04 11:02:43;;;;;;;12.63;6.03;;;;;;;;;;4860086;29;20195;-69
2022/07/04 11:05:14;;;;;;;12.35;5.13;;;;;;;;;;4840780;29;20511;-69
2022/07/04 11:07:45;;;;;;;10.07;4.22;;;;;;;;;;4840590;29;20053;-69
2022/07/04 11:10:21;;;;;;;9.65;4.25;;;;;;;;;;4841027;29;20495;-69
2022/07/04 11:12:55;;;;;;;9.50;4.50;;;;;;;;;;4810593;29;20053;-70
2022/07/04 11:15:27;;;;;;;11.38;4.50;;;;;;;;;;4840921;29;20054;-68
2022/07/04 11:17:57;;;;;;;12.10;4.35;;;;;;;;;;4840365;29;20050;-68
2022/07/04 11:20:43;;;;;;;10.27;4.43;;;;;;;;;;4840822;29;20069;-68
2022/07/04 11:23:15;;;;;;;10.75;4.53;;;;;;;;;;4840589;29;20061;-69
2022/07/04 11:25:48;;;;;;;9.07;4.72;;;;;;;;;;4825646;29;20069;-70
2022/07/04 11:28:22;;;;;;;21.30;9.30;;;;;;;;;;4822359;29;20061;-70
2022/07/04 11:31:12;;;;;;;25.67;14.65;;;;;;;;;;4822243;29;20058;-69
2022/07/04 11:33:45;;;;;;;12.73;6.22;;;;;;;;;;4807101;29;20058;-70
2022/07/04 11:36:22;;;;;;;9.50;5.05;;;;;;;;;;4822055;29;20067;-70
2022/07/04 11:39:01;;;;;;;12.48;5.40;;;;;;;;;;4807110;29;20054;-70
2022/07/04 11:47:19;;;;;;;15.10;6.28;;;;;;;;;;4840353;29;20069;-70
2022/07/04 11:49:57;;;;;;;10.57;4.80;;;;;;;;;;4840534;29;20510;-71
2022/07/04 11:52:39;;;;;;;11.43;5.05;;;;;;;;;;4809914;29;20081;-71
2022/07/04 11:55:30;;;;;;;9.85;4.65;;;;;;;;;;4849002;29;20061;-70
2022/07/04 11:58:00;;;;;;;15.40;5.40;;;;;;;;;;4858684;29;20053;-71
2022/07/04 12:00:31;;;;;;;14.63;5.97;;;;;;;;;;4858758;29;20061;-71
2022/07/04 12:03:02;;;;;;;12.10;6.13;;;;;;;;;;4843184;29;20068;-71
2022/07/04 12:05:33;;;;;;;10.10;5.85;;;;;;;;;;4865571;29;20068;-71
2022/07/04 12:08:07;;;;;;;12.82;4.72;;;;;;;;;;4844504;29;20057;-71
2022/07/04 12:10:53;;;;;;;10.50;4.20;;;;;;;;;;4877094;29;20052;-71
2022/07/04 12:13:24;;;;;;;7.35;3.15;;;;;;;;;;4845663;29;20077;-71
2022/07/04 12:15:56;;;;;;;5.53;2.60;;;;;;;;;;4876879;29;20053;-71
2022/07/04 12:18:29;;;;;;;6.38;2.90;;;;;;;;;;4876548;29;20048;-71
2022/07/04 12:21:19;;;;;;;12.98;3.05;;;;;;;;;;4877037;29;20064;-71
2022/07/04 12:23:53;;;;;;;6.63;2.55;;;;;;;;;;4861618;29;20045;-71
2022/07/04 12:26:47;;;;;;;5.72;2.40;;;;;;;;;;4876487;29;20061;-71
2022/07/04 12:29:27;;;;;;;5.93;2.20;;;;;;;;;;4861555;29;20057;-70
2022/07/04 12:32:00;;;;;;;8.57;2.40;;;;;;;;;;4876324;29;20065;-70
2022/07/04 12:34:31;;;;;;;7.07;2.75;;;;;;;;;;4876577;29;20049;-71
2022/07/04 12:37:26;;;;;;;5.40;2.50;;;;;;;;;;4876476;29;20057;-71
2022/07/04 12:40:08;;;;;;;7.22;1.98;;;;;;;;;;4876448;29;20064;-71
2022/07/04 12:42:40;;;;;;;5.82;2.50;;;;;;;;;;4876469;29;20087;-71
2022/07/04 12:45:11;;;;;;;7.13;2.25;;;;;;;;;;4875883;29;20057;-71
2022/07/04 12:47:49;;;;;;;5.72;2.00;;;;;;;;;;4824244;29;20057;-70
2022/07/04 12:50:27;;;;;;;7.07;2.28;;;;;;;;;;4793886;29;20064;-70
2022/07/04 12:52:57;;;;;;;3.88;1.75;;;;;;;;;;4820976;29;20189;-69
2022/07/04 12:55:30;;;;;;;5.68;2.20;;;;;;;;;;4820797;29;20099;-72
2022/07/04 12:58:01;;;;;;;8.43;2.28;;;;;;;;;;4790869;29;20089;-69
2022/07/04 13:00:31;;;;;;;6.82;2.17;;;;;;;;;;4821096;29;20069;-69
2022/07/04 13:03:04;;;;;;;8.77;2.53;;;;;;;;;;4821083;29;20519;-70
2022/07/04 13:05:36;;;;;;;6.03;2.00;;;;;;;;;;4775585;29;20062;-70
2022/07/04 13:08:07;;;;;;;4.90;2.00;;;;;;;;;;4790440;29;20062;-70
2022/07/04 13:10:37;;;;;;;4.65;1.95;;;;;;;;;;4820674;29;20173;-70
2022/07/04 13:13:07;;;;;;;5.18;2.20;;;;;;;;;;4790759;29;20082;-70
2022/07/04 13:15:38;;;;;;;7.95;2.35;;;;;;;;;;4790204;29;20062;-70
2022/07/04 13:18:09;;;;;;;6.05;2.13;;;;;;;;;;4821191;29;20457;-70
2022/07/04 13:20:39;;;;;;;3.92;2.00;;;;;;;;;;4820371;29;20062;-70
2022/07/04 13:23:09;;;;;;;7.90;2.00;;;;;;;;;;4790283;29;20188;-70
2022/07/04 13:25:47;;;;;;;3.47;1.60;;;;;;;;;;4845424;29;20061;-71
2022/07/04 13:28:18;;;;;;;6.78;2.00;;;;;;;;;;4857418;29;20514;-70
2022/07/04 13:30:48;;;;;;;5.93;2.13;;;;;;;;;;4869298;29;20541;-71
2022/07/04 13:33:19;;;;;;;7.45;2.30;;;;;;;;;;4877879;29;20045;-71
2022/07/04 13:35:49;;;;;;;6.57;1.88;;;;;;;;;;4877736;29;20049;-71
2022/07/04 13:38:19;;;;;;;6.40;1.92;;;;;;;;;;4877875;29;20513;-70
2022/07/04 13:40:50;;;;;;;6.55;2.10;;;;;;;;;;4875660;29;20057;-70
2022/07/04 13:43:20;;;;;;;6.45;2.05;;;;;;;;;;4860758;29;20049;-70
2022/07/04 13:45:51;;;;;;;3.35;1.38;;;;;;;;;;4845047;29;20068;-70
2022/07/04 13:48:24;;;;;;;3.58;1.77;;;;;;;;;;4877754;29;20425;-71
2022/07/04 13:50:59;;;;;;;6.60;2.00;;;;;;;;;;4877645;29;20045;-71
2022/07/04 13:53:38;;;;;;;3.40;1.40;;;;;;;;;;4856419;29;20065;-70
2022/07/04 13:56:10;;;;;;;6.47;1.45;;;;;;;;;;4819765;29;20069;-70
2022/07/04 13:58:40;;;;;;;3.67;1.30;;;;;;;;;;4805237;29;20070;-70
2022/07/04 14:01:12;;;;;;;4.93;1.65;;;;;;;;;;4820094;29;20074;-71
2022/07/04 14:03:49;;;;;;;4.05;1.13;;;;;;;;;;4820137;29;20050;-70
2022/07/04 14:06:25;;;;;;;2.78;1.08;;;;;;;;;;4819169;29;20519;-71
2022/07/04 14:08:57;;;;;;;3.40;1.30;;;;;;;;;;4819847;29;20610;-71
2022/07/04 14:11:31;;;;;;;5.50;1.33;;;;;;;;;;4820067;29;20518;-70
2022/07/04 14:14:04;;;;;;;4.72;1.25;;;;;;;;;;4820381;29;20059;-71
2022/07/04 14:16:38;;;;;;;4.68;1.15;;;;;;;;;;4819776;29;20062;-73
2022/07/04 14:19:17;;;;;;;3.28;1.30;;;;;;;;;;4783298;29;20528;-71
2022/07/04 14:21:51;;;;;;;3.95;1.50;;;;;;;;;;4783215;29;20067;-73
2022/07/04 14:24:24;;;;;;;3.95;1.30;;;;;;;;;;4753707;29;20055;-71
2022/07/04 14:26:55;;;;;;;2.97;1.00;;;;;;;;;;4747949;30;20060;-70
2022/07/04 14:29:26;;;;;;;2.95;0.95;;;;;;;;;;4718506;30;20071;-70
2022/07/04 14:31:56;;;;;;;4.13;1.13;;;;;;;;;;4749069;30;20465;-71
2022/07/04 14:34:27;;;;;;;3.70;1.30;;;;;;;;;;4751266;30;20060;-71
2022/07/04 14:36:57;;;;;;;2.03;1.10;;;;;;;;;;4754490;30;20067;-71
2022/07/04 14:39:27;;;;;;;7.05;1.15;;;;;;;;;;4769123;30;20060;-71
2022/07/04 14:41:57;;;;;;;4.10;1.15;;;;;;;;;;4769080;30;20556;-71
2022/07/04 14:44:28;;;;;;;6.80;1.10;;;;;;;;;;4769045;30;20060;-73
2022/07/04 14:46:58;;;;;;;6.00;1.13;;;;;;;;;;4783199;29;20083;-72
2022/07/04 14:49:28;;;;;;;2.35;1.10;;;;;;;;;;4756179;29;20067;-70
2022/07/04 14:51:59;;;;;;;4.88;1.00;;;;;;;;;;4790210;29;20067;-71
2022/07/04 14:54:30;;;;;;;6.88;1.77;;;;;;;;;;4804839;29;20054;-71
2022/07/04 14:57:00;;;;;;;;;;;;;;;;;;4805146;29;20075;-71
2022/07/04 14:59:31;;;;;;;2.72;1.10;;;;;;;;;;4789799;29;19925;-70
2022/07/04 15:02:03;;;;;;;5.53;1.13;;;;;;;;;;4822668;29;20058;-71
2022/07/04 15:04:34;;;;;;;4.93;1.10;;;;;;;;;;4845666;29;20060;-72
2022/07/04 15:07:05;;;;;;;2.60;0.90;;;;;;;;;;4862763;29;20149;-72
2022/07/04 15:09:35;;;;;;;3.13;1.45;;;;;;;;;;4878187;29;20057;-73
2022/07/04 15:12:05;;;;;;;2.38;0.90;;;;;;;;;;4877931;29;20049;-70
2022/07/04 15:14:35;;;;;;;3.67;0.98;;;;;;;;;;4877990;29;20096;-70
2022/07/04 15:17:06;;;;;;;8.15;1.15;;;;;;;;;;4875543;29;20053;-69
2022/07/04 15:25:18;;;;;;;2.22;0.90;;;;;;;;;;4846974;29;20417;-69
2022/07/04 15:27:51;;;;;;;4.35;1.38;;;;;;;;;;4880085;29;20052;-70
2022/07/04 15:30:22;;;;;;;1.42;0.95;;;;;;;;;;4879753;29;20041;-69